Time;durP1;ratioP1;P1;durP2;ratioP2;P2;SDS_P1;SDS_P2;PMS_P1;PMS_P2;Temp;Humidity;BMP_temperature;BMP_pressure;BME280_temperature;BME280_humidity;BME280_pressure;Samples;Min_cycle;Max_cycle;Signal;HPM_P1;HPM_P2
2023/10/30 00:01:32;;;;;;;2.90;0.70;;;10.30;99.90;;;;;;5095579;28;20121;-77
2023/10/30 00:03:58;;;;;;;3.53;0.60;;;10.30;99.90;;;;;;5095545;28;20059;-77
2023/10/30 00:06:24;;;;;;;6.72;1.35;;;10.30;99.90;;;;;;5077062;28;20051;-77
2023/10/30 00:08:49;;;;;;;9.88;1.23;;;10.30;99.90;;;;;;5077441;28;20055;-77
2023/10/30 00:11:15;;;;;;;9.13;0.90;;;10.30;99.90;;;;;;5094341;28;20043;-77
2023/10/30 00:13:42;;;;;;;8.70;1.10;;;10.30;99.90;;;;;;5077201;28;20388;-77
2023/10/30 00:16:11;;;;;;;8.55;1.67;;;10.30;99.90;;;;;;5077248;28;20051;-77
2023/10/30 00:18:39;;;;;;;5.80;1.23;;;10.30;99.90;;;;;;5095270;28;20395;-77
2023/10/30 00:21:11;;;;;;;6.85;1.35;;;10.40;99.90;;;;;;5076930;28;20368;-77
2023/10/30 00:23:36;;;;;;;7.07;1.27;;;10.40;99.90;;;;;;5077263;28;20131;-77
2023/10/30 00:26:05;;;;;;;8.43;1.30;;;10.50;99.90;;;;;;5077164;28;20543;-77
2023/10/30 00:28:33;;;;;;;9.40;1.65;;;10.50;99.90;;;;;;5076935;28;20051;-77
2023/10/30 00:31:00;;;;;;;6.90;1.35;;;10.50;99.90;;;;;;5077087;28;20051;-77
2023/10/30 00:33:25;;;;;;;11.93;1.60;;;10.50;99.90;;;;;;5076983;28;20369;-77
2023/10/30 00:35:51;;;;;;;8.82;1.50;;;10.50;99.90;;;;;;5076871;28;20039;-77
2023/10/30 00:38:17;;;;;;;6.75;1.75;;;10.50;99.90;;;;;;5076789;28;20056;-77
2023/10/30 00:40:42;;;;;;;11.57;1.35;;;10.50;99.90;;;;;;5076914;28;20090;-77
2023/10/30 00:43:08;;;;;;;6.38;1.40;;;10.50;99.90;;;;;;5094710;28;20132;-76
2023/10/30 00:45:34;;;;;;;7.55;2.67;;;10.50;99.90;;;;;;5094756;28;20059;-77
2023/10/30 00:47:59;;;;;;;7.90;1.27;;;10.50;99.90;;;;;;5094495;28;20036;-77
2023/10/30 00:50:25;;;;;;;8.63;1.70;;;10.50;99.90;;;;;;5094543;28;20582;-77
2023/10/30 00:52:51;;;;;;;7.93;1.05;;;10.50;99.90;;;;;;5076257;28;20540;-77
2023/10/30 00:55:16;;;;;;;4.13;0.95;;;10.50;99.90;;;;;;5076396;28;20032;-77
2023/10/30 00:57:43;;;;;;;7.30;1.08;;;10.50;99.90;;;;;;5076245;28;20570;-77
2023/10/30 01:00:09;;;;;;;6.13;1.20;;;10.50;99.90;;;;;;5093510;28;20051;-77
2023/10/30 01:02:35;;;;;;;7.78;1.63;;;10.50;99.90;;;;;;5076386;28;20044;-77
2023/10/30 01:05:01;;;;;;;5.75;1.20;;;10.50;99.90;;;;;;5076212;28;20099;-77
2023/10/30 01:07:27;;;;;;;7.65;1.05;;;10.50;99.90;;;;;;5076256;28;20577;-77
2023/10/30 01:09:53;;;;;;;8.75;2.20;;;10.50;99.90;;;;;;5076279;28;20040;-77
2023/10/30 01:12:18;;;;;;;9.05;1.10;;;10.50;99.90;;;;;;5076134;28;20050;-77
2023/10/30 01:14:44;;;;;;;13.85;1.90;;;10.50;99.90;;;;;;5076405;28;20063;-77
2023/10/30 01:17:10;;;;;;;8.23;2.22;;;10.40;99.90;;;;;;5094299;28;20403;-77
2023/10/30 01:19:36;;;;;;;5.30;1.00;;;10.40;99.90;;;;;;5076261;28;20501;-77
2023/10/30 01:22:01;;;;;;;5.80;0.75;;;10.40;99.90;;;;;;5075791;28;20483;-77
2023/10/30 01:24:27;;;;;;;5.13;1.00;;;10.40;99.90;;;;;;5094286;28;20040;-77
2023/10/30 01:26:53;;;;;;;5.15;1.05;;;10.40;99.90;;;;;;5075877;28;20048;-77
2023/10/30 01:29:18;;;;;;;9.88;1.13;;;10.50;99.90;;;;;;5076189;28;20078;-77
2023/10/30 01:31:44;;;;;;;6.28;1.10;;;10.40;99.90;;;;;;5093734;28;20067;-77
2023/10/30 01:34:09;;;;;;;3.95;0.82;;;10.40;99.90;;;;;;5076067;28;20052;-76
2023/10/30 01:36:35;;;;;;;6.57;1.17;;;10.40;99.90;;;;;;5075774;28;20480;-76
2023/10/30 01:39:01;;;;;;;8.75;1.35;;;10.40;99.90;;;;;;5075717;28;20082;-77
2023/10/30 01:41:27;;;;;;;5.18;0.50;;;10.40;99.90;;;;;;5075763;28;20036;-77
2023/10/30 01:43:53;;;;;;;8.23;0.98;;;10.40;99.90;;;;;;5075699;28;20055;-77
2023/10/30 01:46:19;;;;;;;5.85;0.80;;;10.40;99.90;;;;;;5075952;28;20105;-77
2023/10/30 01:48:46;;;;;;;5.07;1.35;;;10.40;99.90;;;;;;5076025;28;20043;-77
2023/10/30 01:51:12;;;;;;;4.57;1.30;;;10.40;99.90;;;;;;5075634;28;20051;-77
2023/10/30 01:53:38;;;;;;;5.25;0.82;;;10.40;99.90;;;;;;5075593;28;20506;-77
2023/10/30 01:56:05;;;;;;;2.53;0.68;;;10.40;99.90;;;;;;5075662;28;20039;-77
2023/10/30 01:58:31;;;;;;;5.10;1.33;;;10.40;99.90;;;;;;5075694;28;20135;-77
2023/10/30 02:00:57;;;;;;;6.25;0.80;;;10.40;99.90;;;;;;5075421;28;20055;-77
2023/10/30 02:03:23;;;;;;;6.10;1.20;;;10.40;99.90;;;;;;5075615;28;20546;-77
2023/10/30 02:05:51;;;;;;;5.13;0.73;;;10.40;99.90;;;;;;5075145;28;20131;-77
2023/10/30 02:08:17;;;;;;;4.72;0.98;;;10.40;99.90;;;;;;5075496;28;20055;-77
2023/10/30 02:10:43;;;;;;;4.60;0.68;;;10.40;99.90;;;;;;5075672;28;20044;-77
2023/10/30 02:13:10;;;;;;;3.83;0.93;;;10.40;99.90;;;;;;5075662;28;20475;-77
2023/10/30 02:15:36;;;;;;;8.90;1.35;;;10.30;99.90;;;;;;5075340;28;20048;-77
2023/10/30 02:18:02;;;;;;;5.82;1.10;;;10.30;99.90;;;;;;5075539;28;20055;-77
2023/10/30 02:20:28;;;;;;;4.90;0.70;;;10.20;99.90;;;;;;5075560;28;20040;-77
2023/10/30 02:22:54;;;;;;;8.35;1.10;;;10.20;99.90;;;;;;5075698;28;20376;-77
2023/10/30 02:25:24;;;;;;;5.10;0.75;;;10.20;99.90;;;;;;5075398;28;20054;-77
2023/10/30 02:27:50;;;;;;;4.88;1.27;;;10.20;99.90;;;;;;5075374;28;20059;-77
2023/10/30 02:30:16;;;;;;;6.43;1.77;;;10.20;99.90;;;;;;5075277;28;20051;-77
2023/10/30 02:32:44;;;;;;;9.05;1.10;;;10.20;99.90;;;;;;5075170;28;20043;-77
2023/10/30 02:35:14;;;;;;;5.38;0.77;;;10.20;99.90;;;;;;5077832;28;20520;-77
2023/10/30 02:37:41;;;;;;;3.78;0.57;;;10.20;99.90;;;;;;5079020;28;20040;-77
2023/10/30 02:40:07;;;;;;;2.90;0.50;;;10.20;99.90;;;;;;5097133;28;20566;-77
2023/10/30 02:42:33;;;;;;;3.50;0.60;;;10.10;99.90;;;;;;5078725;28;20055;-77
2023/10/30 02:44:59;;;;;;;7.45;0.80;;;10.10;99.90;;;;;;5079062;28;20047;-77
2023/10/30 02:47:25;;;;;;;4.13;1.02;;;10.10;99.90;;;;;;5078824;28;20066;-77
2023/10/30 02:49:51;;;;;;;5.28;0.80;;;10.00;99.90;;;;;;5079093;28;20039;-77
2023/10/30 02:52:18;;;;;;;5.05;0.70;;;10.00;99.90;;;;;;5078793;28;20044;-77
2023/10/30 02:54:46;;;;;;;4.85;0.70;;;10.00;99.90;;;;;;5079044;28;20040;-77
2023/10/30 02:57:13;;;;;;;3.80;0.60;;;9.90;99.90;;;;;;5078570;28;20123;-77
2023/10/30 02:59:39;;;;;;;3.17;0.68;;;9.90;99.90;;;;;;5078483;28;20048;-77
2023/10/30 03:02:06;;;;;;;3.85;0.50;;;9.90;99.90;;;;;;5078489;28;20040;-77
2023/10/30 03:04:32;;;;;;;3.60;0.55;;;9.90;99.90;;;;;;5078849;28;20052;-77
2023/10/30 03:06:58;;;;;;;4.80;0.70;;;9.90;99.90;;;;;;5078403;28;20376;-77
2023/10/30 03:09:28;;;;;;;4.32;0.70;;;9.80;99.90;;;;;;5078597;28;20060;-77
2023/10/30 03:11:54;;;;;;;4.63;0.63;;;9.80;99.90;;;;;;5078345;28;20132;-77
2023/10/30 03:14:19;;;;;;;3.00;0.98;;;9.80;99.90;;;;;;5078669;28;20106;-77
2023/10/30 03:16:45;;;;;;;6.88;1.27;;;9.80;99.90;;;;;;5078562;28;20047;-77
2023/10/30 03:19:11;;;;;;;3.83;1.10;;;9.70;99.90;;;;;;5078427;28;20046;-77
2023/10/30 03:21:36;;;;;;;4.72;1.02;;;9.70;99.90;;;;;;5078623;28;20040;-77
2023/10/30 03:24:02;;;;;;;5.15;1.10;;;9.70;99.90;;;;;;5078610;28;20429;-77
2023/10/30 03:26:29;;;;;;;5.57;1.40;;;9.60;99.90;;;;;;5078259;28;20055;-77
2023/10/30 03:28:57;;;;;;;7.07;1.60;;;9.60;99.90;;;;;;5096146;28;20513;-77
2023/10/30 03:31:23;;;;;;;5.43;1.85;;;9.60;99.90;;;;;;5078090;28;20044;-77
2023/10/30 03:33:49;;;;;;;7.60;1.63;;;9.60;99.90;;;;;;5096318;28;20089;-77
2023/10/30 03:36:19;;;;;;;3.50;1.45;;;9.60;99.90;;;;;;5078188;28;20032;-77
2023/10/30 03:38:45;;;;;;;11.95;2.00;;;9.60;99.90;;;;;;5078143;28;20044;-77
2023/10/30 03:41:10;;;;;;;7.65;2.22;;;9.60;99.90;;;;;;5078076;28;20044;-77
2023/10/30 03:43:36;;;;;;;5.75;1.90;;;9.60;99.90;;;;;;5078663;28;20140;-77
2023/10/30 03:46:02;;;;;;;5.88;2.42;;;9.60;99.90;;;;;;5078040;28;20075;-77
2023/10/30 03:48:27;;;;;;;9.80;2.58;;;9.60;99.90;;;;;;5077737;28;20123;-77
2023/10/30 03:50:53;;;;;;;10.18;2.83;;;9.70;99.90;;;;;;5077710;28;20123;-77
2023/10/30 03:53:18;;;;;;;8.45;2.70;;;9.60;99.90;;;;;;5078056;28;20051;-77
2023/10/30 03:55:44;;;;;;;10.00;3.58;;;9.60;99.90;;;;;;5077596;28;20468;-78
2023/10/30 03:58:10;;;;;;;7.43;2.60;;;9.60;99.90;;;;;;5077416;28;20043;-78
2023/10/30 04:00:35;;;;;;;9.20;2.58;;;9.60;99.90;;;;;;5077425;28;20071;-77
2023/10/30 04:03:01;;;;;;;9.13;2.20;;;9.60;99.90;;;;;;5077317;28;20475;-77
2023/10/30 04:05:29;;;;;;;13.40;2.92;;;9.50;99.90;;;;;;5077472;28;20060;-77
2023/10/30 04:07:57;;;;;;;9.38;2.80;;;9.60;99.90;;;;;;5077176;28;20055;-77
2023/10/30 04:10:23;;;;;;;11.52;2.47;;;9.60;99.90;;;;;;5077187;28;20036;-77
2023/10/30 04:12:49;;;;;;;8.55;2.92;;;9.60;99.90;;;;;;5076971;28;20054;-77
2023/10/30 04:15:15;;;;;;;8.50;3.15;;;9.60;99.90;;;;;;5077469;28;20036;-77
2023/10/30 04:17:41;;;;;;;7.75;2.88;;;9.60;99.90;;;;;;5077107;28;20052;-77
2023/10/30 04:20:07;;;;;;;11.60;2.63;;;9.70;99.90;;;;;;5077254;28;20036;-76
2023/10/30 04:22:32;;;;;;;13.02;2.28;;;9.70;99.90;;;;;;5077217;28;20044;-77
2023/10/30 04:24:58;;;;;;;7.35;2.10;;;9.70;99.90;;;;;;5076962;28;20051;-77
2023/10/30 04:27:23;;;;;;;12.45;2.78;;;9.70;99.90;;;;;;5077137;28;20048;-77
2023/10/30 04:29:49;;;;;;;10.02;2.63;;;9.70;99.90;;;;;;5077319;28;20051;-77
2023/10/30 04:32:15;;;;;;;10.18;3.17;;;9.80;99.90;;;;;;5094950;28;20051;-77
2023/10/30 04:34:40;;;;;;;21.02;3.25;;;9.70;99.90;;;;;;5077141;28;20170;-77
2023/10/30 04:37:06;;;;;;;14.07;2.65;;;9.70;99.90;;;;;;5076653;28;20083;-77
2023/10/30 04:39:32;;;;;;;12.27;2.85;;;9.70;99.90;;;;;;5076841;28;20120;-77
2023/10/30 04:41:57;;;;;;;12.48;2.63;;;9.60;99.90;;;;;;5076713;28;20047;-77
2023/10/30 04:44:23;;;;;;;7.70;2.47;;;9.60;99.90;;;;;;5076696;28;20040;-77
2023/10/30 04:46:48;;;;;;;12.02;2.30;;;9.60;99.90;;;;;;5076617;28;20044;-77
2023/10/30 04:49:14;;;;;;;10.45;2.78;;;9.60;99.90;;;;;;5076952;28;20043;-78
2023/10/30 04:51:40;;;;;;;11.00;2.63;;;9.60;99.90;;;;;;5076580;28;20451;-77
2023/10/30 04:54:05;;;;;;;11.40;2.22;;;9.50;99.90;;;;;;5076377;28;20040;-77
2023/10/30 04:56:31;;;;;;;15.27;3.58;;;9.60;99.90;;;;;;5075957;28;20067;-77
2023/10/30 04:58:57;;;;;;;10.93;2.78;;;9.60;99.90;;;;;;5076304;28;20483;-77
2023/10/30 05:01:22;;;;;;;12.15;2.70;;;9.50;99.90;;;;;;5076462;28;20082;-77
2023/10/30 05:03:48;;;;;;;11.77;2.47;;;9.50;99.90;;;;;;5076630;28;20451;-77
2023/10/30 05:06:14;;;;;;;10.68;2.47;;;9.50;99.90;;;;;;5076182;28;20079;-77
2023/10/30 05:08:39;;;;;;;13.60;3.30;;;9.50;99.90;;;;;;5076128;28;20056;-77
2023/10/30 05:11:05;;;;;;;9.00;2.15;;;9.50;99.90;;;;;;5076078;28;20055;-77
2023/10/30 05:13:30;;;;;;;17.27;3.53;;;9.50;99.90;;;;;;5076620;28;20069;-77
2023/10/30 05:15:56;;;;;;;12.90;2.25;;;9.50;99.90;;;;;;5076007;28;20381;-77
2023/10/30 05:18:28;;;;;;;10.77;2.20;;;9.40;99.90;;;;;;5076043;28;20040;-77
2023/10/30 05:20:54;;;;;;;16.05;2.72;;;9.40;99.90;;;;;;5076143;28;20040;-77
2023/10/30 05:23:20;;;;;;;14.57;3.10;;;9.40;99.90;;;;;;5076201;28;20048;-77
2023/10/30 05:25:45;;;;;;;10.75;2.40;;;9.40;99.90;;;;;;5076394;28;20490;-77
2023/10/30 05:28:11;;;;;;;8.80;2.00;;;9.40;99.90;;;;;;5093974;28;20047;-77
2023/10/30 05:30:37;;;;;;;12.65;2.10;;;9.40;99.90;;;;;;5094585;28;20463;-77
2023/10/30 05:33:03;;;;;;;10.02;3.08;;;9.40;99.90;;;;;;5075484;28;20036;-77
2023/10/30 05:35:30;;;;;;;7.20;1.85;;;9.40;99.90;;;;;;5094012;28;20483;-77
2023/10/30 05:37:56;;;;;;;13.30;2.40;;;9.40;99.90;;;;;;5093806;28;20475;-77
2023/10/30 05:40:22;;;;;;;8.63;1.98;;;9.40;99.90;;;;;;5075925;28;20471;-77
2023/10/30 05:42:48;;;;;;;7.38;2.20;;;9.50;99.90;;;;;;5075853;28;20044;-77
2023/10/30 05:45:13;;;;;;;11.93;2.30;;;9.50;99.90;;;;;;5076120;28;20058;-77
2023/10/30 05:47:39;;;;;;;9.43;1.75;;;9.50;99.90;;;;;;5075750;28;20399;-77
2023/10/30 05:50:06;;;;;;;8.48;2.67;;;9.50;99.90;;;;;;5075556;28;20040;-77
2023/10/30 05:52:32;;;;;;;5.85;1.90;;;9.50;99.90;;;;;;5075616;28;20044;-77
2023/10/30 05:54:57;;;;;;;10.30;2.17;;;9.50;99.90;;;;;;5075925;28;20090;-77
2023/10/30 05:57:23;;;;;;;11.27;2.63;;;9.50;99.90;;;;;;5075543;28;20093;-77
2023/10/30 05:59:49;;;;;;;14.57;3.00;;;9.50;99.90;;;;;;5075421;28;20073;-77
2023/10/30 06:02:15;;;;;;;15.57;2.40;;;9.50;99.90;;;;;;5093706;28;20471;-77
2023/10/30 06:04:41;;;;;;;8.20;2.40;;;9.50;99.90;;;;;;5093517;28;20092;-77
2023/10/30 06:07:10;;;;;;;9.27;2.03;;;9.40;99.90;;;;;;5075247;28;20170;-77
2023/10/30 06:09:36;;;;;;;9.93;2.35;;;9.40;99.90;;;;;;5077343;28;20052;-77
2023/10/30 06:12:02;;;;;;;9.90;2.72;;;9.40;99.90;;;;;;5079798;28;20444;-77
2023/10/30 06:14:27;;;;;;;11.20;2.22;;;9.40;99.90;;;;;;5079599;28;20446;-77
2023/10/30 06:16:53;;;;;;;11.40;2.30;;;9.40;99.90;;;;;;5079482;28;20179;-77
2023/10/30 06:19:18;;;;;;;19.67;2.53;;;9.40;99.90;;;;;;5079452;28;20040;-77
2023/10/30 06:21:44;;;;;;;11.27;2.15;;;9.40;99.90;;;;;;5097761;28;20067;-77
2023/10/30 06:24:16;;;;;;;10.45;2.45;;;9.40;99.90;;;;;;5078949;28;20415;-77
2023/10/30 06:26:41;;;;;;;11.65;1.85;;;9.40;99.90;;;;;;5078883;28;20395;-77
2023/10/30 06:29:08;;;;;;;9.05;2.20;;;9.40;99.90;;;;;;5078224;28;20472;-76
2023/10/30 06:31:33;;;;;;;13.90;2.42;;;9.40;99.90;;;;;;5078934;28;20066;-77
2023/10/30 06:33:59;;;;;;;11.45;2.45;;;9.30;99.90;;;;;;5079058;28;20044;-77
2023/10/30 06:36:24;;;;;;;19.00;2.60;;;9.40;99.90;;;;;;5078961;28;20048;-77
2023/10/30 06:38:50;;;;;;;10.55;2.85;;;9.30;99.90;;;;;;5079117;28;20127;-77
2023/10/30 06:41:16;;;;;;;10.57;1.75;;;9.30;99.90;;;;;;5096937;28;20078;-77
2023/10/30 06:43:42;;;;;;;11.25;2.03;;;9.30;99.90;;;;;;5096707;28;20083;-77
2023/10/30 06:46:10;;;;;;;12.75;2.55;;;9.30;99.90;;;;;;5078683;28;20051;-77
2023/10/30 06:48:36;;;;;;;20.27;2.83;;;9.30;99.90;;;;;;5078794;28;20135;-77
2023/10/30 06:51:02;;;;;;;13.95;2.45;;;9.30;99.90;;;;;;5096773;28;20479;-77
2023/10/30 06:53:27;;;;;;;7.63;1.88;;;9.30;99.90;;;;;;5096881;28;20454;-77
2023/10/30 06:55:53;;;;;;;10.75;3.05;;;9.30;99.90;;;;;;5078496;28;20048;-78
2023/10/30 06:58:21;;;;;;;18.10;2.20;;;9.30;99.90;;;;;;5096367;28;20066;-78
2023/10/30 07:00:47;;;;;;;9.63;2.20;;;9.30;99.90;;;;;;5078652;28;20048;-77
2023/10/30 07:03:13;;;;;;;14.20;1.92;;;9.30;99.90;;;;;;5077847;28;20566;-77
2023/10/30 07:05:38;;;;;;;12.18;2.08;;;9.30;99.90;;;;;;5094839;28;20526;-76
2023/10/30 07:08:05;;;;;;;7.45;1.80;;;9.30;99.90;;;;;;5077834;28;20048;-76
2023/10/30 07:10:30;;;;;;;13.55;2.20;;;9.30;99.90;;;;;;5078314;28;20055;-77
2023/10/30 07:13:02;;;;;;;9.05;2.03;;;9.40;99.90;;;;;;5095945;28;20402;-75
2023/10/30 07:15:28;;;;;;;8.30;1.92;;;9.40;99.90;;;;;;5078213;28;20052;-75
2023/10/30 07:17:55;;;;;;;12.77;2.55;;;9.40;99.90;;;;;;5078191;28;20399;-75
2023/10/30 07:20:21;;;;;;;10.73;2.70;;;9.40;99.90;;;;;;5077496;28;20052;-75
2023/10/30 07:22:50;;;;;;;10.27;2.80;;;9.40;99.90;;;;;;5095995;28;20178;-75
2023/10/30 07:25:15;;;;;;;12.05;1.77;;;9.40;99.90;;;;;;5078071;28;20415;-75
2023/10/30 07:27:41;;;;;;;10.73;1.98;;;9.50;99.90;;;;;;5077853;28;20491;-75
2023/10/30 07:30:08;;;;;;;12.32;2.15;;;9.50;99.90;;;;;;5077784;28;20513;-75
2023/10/30 07:32:34;;;;;;;18.85;2.67;;;9.50;99.90;;;;;;5077603;28;20054;-75
2023/10/30 07:35:00;;;;;;;11.50;1.90;;;9.60;99.90;;;;;;5095732;28;20047;-76
2023/10/30 07:37:27;;;;;;;12.20;2.00;;;9.60;99.90;;;;;;5077607;28;20040;-76
2023/10/30 07:39:52;;;;;;;9.90;2.05;;;9.60;99.90;;;;;;5077822;28;20066;-76
2023/10/30 07:42:18;;;;;;;9.20;2.55;;;9.70;99.90;;;;;;5077166;28;20047;-76
2023/10/30 07:44:44;;;;;;;11.38;2.03;;;9.80;99.90;;;;;;5095600;28;20047;-76
2023/10/30 07:47:09;;;;;;;14.13;2.45;;;9.80;99.90;;;;;;5077061;28;20043;-75
2023/10/30 07:49:35;;;;;;;9.07;2.08;;;9.80;99.90;;;;;;5095761;28;20039;-75
2023/10/30 07:52:01;;;;;;;11.30;2.33;;;9.90;99.90;;;;;;5077200;28;20079;-75
2023/10/30 07:54:26;;;;;;;14.60;2.90;;;10.00;99.90;;;;;;5077618;28;20044;-75
2023/10/30 07:56:52;;;;;;;10.98;2.40;;;10.00;99.90;;;;;;5076956;28;20510;-75
2023/10/30 07:59:18;;;;;;;15.98;2.80;;;10.10;99.90;;;;;;5077187;28;20048;-75
2023/10/30 08:01:45;;;;;;;14.75;2.25;;;10.10;99.90;;;;;;5076974;28;20090;-75
2023/10/30 08:04:10;;;;;;;13.70;3.38;;;10.20;99.90;;;;;;5095170;28;20051;-75
2023/10/30 08:06:37;;;;;;;12.30;2.30;;;10.30;99.90;;;;;;5076866;28;20563;-75
2023/10/30 08:09:03;;;;;;;12.10;2.15;;;10.40;99.90;;;;;;5094967;28;20463;-75
2023/10/30 08:11:30;;;;;;;14.18;2.17;;;10.40;99.90;;;;;;5094826;28;20411;-75
2023/10/30 08:13:56;;;;;;;15.85;2.75;;;10.40;99.90;;;;;;5076877;28;20051;-75
2023/10/30 08:16:21;;;;;;;16.38;2.75;;;10.50;99.90;;;;;;5076853;28;20044;-78
2023/10/30 08:18:47;;;;;;;9.90;2.20;;;10.60;99.90;;;;;;5076784;28;20048;-76
2023/10/30 08:21:13;;;;;;;10.15;2.50;;;10.70;99.90;;;;;;5076535;28;20088;-79
2023/10/30 08:23:39;;;;;;;11.00;3.13;;;10.70;99.90;;;;;;5076717;28;20090;-76
2023/10/30 08:26:08;;;;;;;12.30;2.42;;;10.80;99.90;;;;;;5076639;28;20056;-76
2023/10/30 08:28:35;;;;;;;14.77;2.42;;;10.80;99.90;;;;;;5076593;28;20127;-77
2023/10/30 08:31:01;;;;;;;11.35;1.95;;;10.80;99.90;;;;;;5076912;28;20479;-76
2023/10/30 08:33:27;;;;;;;8.15;2.58;;;10.90;99.90;;;;;;5075875;28;20054;-77
2023/10/30 08:36:02;;;;;;;11.27;2.45;;;10.90;99.90;;;;;;5094471;28;20046;-77
2023/10/30 08:38:27;;;;;;;11.18;2.03;;;11.00;99.90;;;;;;5076512;28;20074;-77
2023/10/30 08:40:53;;;;;;;18.67;2.50;;;11.00;99.90;;;;;;5075606;28;20090;-77
2023/10/30 08:43:18;;;;;;;9.90;1.88;;;11.10;99.90;;;;;;5075597;28;20054;-77
2023/10/30 08:45:44;;;;;;;11.02;2.50;;;11.10;99.90;;;;;;5094631;28;20119;-76
2023/10/30 08:48:13;;;;;;;12.55;2.50;;;11.20;99.90;;;;;;5076374;28;20433;-76
2023/10/30 08:50:40;;;;;;;12.73;2.75;;;11.20;99.90;;;;;;5076771;28;20122;-76
2023/10/30 08:53:09;;;;;;;14.73;2.88;;;11.20;99.90;;;;;;5076166;28;20047;-76
2023/10/30 08:55:34;;;;;;;15.77;2.63;;;11.30;99.90;;;;;;5094461;28;20047;-77
2023/10/30 08:58:00;;;;;;;11.55;2.30;;;11.30;99.90;;;;;;5076325;28;20044;-76
2023/10/30 09:00:26;;;;;;;15.45;4.20;;;11.40;99.90;;;;;;5076141;28;20498;-76
2023/10/30 09:02:52;;;;;;;12.80;3.05;;;11.40;99.90;;;;;;5094225;28;20495;-76
2023/10/30 09:05:18;;;;;;;10.20;2.28;;;11.50;99.90;;;;;;5094245;28;20047;-77
2023/10/30 09:07:46;;;;;;;14.18;2.97;;;11.50;99.90;;;;;;5093996;28;20089;-78
2023/10/30 09:10:12;;;;;;;16.33;2.40;;;11.50;99.90;;;;;;5076282;28;20047;-77
2023/10/30 09:12:37;;;;;;;15.82;3.67;;;11.50;99.90;;;;;;5075919;28;20043;-77
2023/10/30 09:15:05;;;;;;;12.73;2.42;;;11.50;99.90;;;;;;5076135;28;20044;-76
2023/10/30 09:17:30;;;;;;;10.85;2.53;;;11.50;99.90;;;;;;5094053;28;20040;-77
2023/10/30 09:19:59;;;;;;;8.70;2.03;;;11.60;99.90;;;;;;5076129;28;20502;-77
2023/10/30 09:22:25;;;;;;;11.57;2.28;;;11.60;99.90;;;;;;5075637;28;20058;-77
2023/10/30 09:24:51;;;;;;;10.27;2.08;;;11.70;99.90;;;;;;5075729;28;20052;-77
2023/10/30 09:27:17;;;;;;;11.35;2.25;;;11.80;99.90;;;;;;5075752;28;20050;-77
2023/10/30 09:29:45;;;;;;;12.40;2.67;;;11.90;99.90;;;;;;5076032;28;20054;-77
2023/10/30 09:32:11;;;;;;;12.73;2.67;;;12.00;99.90;;;;;;5075678;28;20544;-77
2023/10/30 09:34:38;;;;;;;9.68;2.42;;;12.10;99.90;;;;;;5093844;28;20037;-76
2023/10/30 09:37:04;;;;;;;13.23;2.63;;;12.20;99.90;;;;;;5093694;28;20047;-76
2023/10/30 09:39:30;;;;;;;13.18;2.70;;;12.30;99.90;;;;;;5075836;28;20053;-77
2023/10/30 09:41:59;;;;;;;14.85;1.83;;;12.30;99.90;;;;;;5093680;28;20048;-76
2023/10/30 09:44:26;;;;;;;17.00;3.30;;;12.30;99.90;;;;;;5093452;28;20063;-77
2023/10/30 09:46:53;;;;;;;11.70;2.60;;;12.30;99.90;;;;;;5075254;28;20044;-77
2023/10/30 09:49:20;;;;;;;17.40;2.67;;;12.40;99.90;;;;;;5075498;28;20059;-78
2023/10/30 09:51:51;;;;;;;13.00;1.95;;;12.40;99.90;;;;;;5093246;28;20101;-76
2023/10/30 09:54:17;;;;;;;10.80;2.60;;;12.40;99.90;;;;;;5075333;28;20067;-76
2023/10/30 09:56:44;;;;;;;15.00;2.60;;;12.40;99.90;;;;;;5075533;28;20097;-76
2023/10/30 09:59:12;;;;;;;13.95;2.58;;;12.40;99.90;;;;;;5093565;28;20040;-77
2023/10/30 10:01:38;;;;;;;11.43;2.58;;;12.50;99.90;;;;;;5075306;28;20123;-76
2023/10/30 10:04:04;;;;;;;14.43;2.85;;;12.40;99.90;;;;;;5093249;28;20170;-76
2023/10/30 10:06:30;;;;;;;10.10;1.52;;;12.50;99.90;;;;;;5075107;28;20056;-77
2023/10/30 10:08:59;;;;;;;11.48;2.03;;;12.50;99.90;;;;;;5075482;28;20055;-76
2023/10/30 10:11:32;;;;;;;11.27;2.00;;;12.50;99.90;;;;;;5075331;28;20484;-76
2023/10/30 10:13:58;;;;;;;11.80;2.13;;;12.60;99.90;;;;;;5075622;28;20059;-77
2023/10/30 10:16:31;;;;;;;14.70;3.13;;;12.70;99.90;;;;;;5093297;28;20414;-77
2023/10/30 10:18:57;;;;;;;13.07;3.13;;;12.90;99.90;;;;;;5075348;28;20067;-76
2023/10/30 10:21:22;;;;;;;14.75;2.85;;;12.90;99.90;;;;;;5075155;28;20491;-76
2023/10/30 10:23:49;;;;;;;11.30;2.90;;;13.00;99.90;;;;;;5093448;28;20040;-77
2023/10/30 10:26:15;;;;;;;14.32;2.95;;;13.10;99.90;;;;;;5093538;28;20040;-77
2023/10/30 10:28:42;;;;;;;13.63;2.15;;;13.20;99.90;;;;;;5075095;28;20135;-76
2023/10/30 10:31:11;;;;;;;14.27;3.22;;;13.30;99.90;;;;;;5075115;28;20071;-77
2023/10/30 10:33:37;;;;;;;9.95;2.67;;;13.30;99.90;;;;;;5075089;28;20066;-77
2023/10/30 10:36:04;;;;;;;13.27;3.13;;;13.30;99.90;;;;;;5093001;28;20467;-77
2023/10/30 10:38:31;;;;;;;14.82;2.83;;;13.40;99.90;;;;;;5074926;28;20047;-76
2023/10/30 10:40:57;;;;;;;14.68;2.58;;;13.50;99.90;;;;;;5093213;28;20440;-77
2023/10/30 10:43:25;;;;;;;17.13;2.97;;;13.40;99.90;;;;;;5075249;28;20043;-77
2023/10/30 10:45:52;;;;;;;14.32;2.95;;;13.30;99.90;;;;;;5075433;28;20483;-77
2023/10/30 10:48:19;;;;;;;12.25;2.28;;;13.20;99.90;;;;;;5093277;28;20036;-77
2023/10/30 10:50:45;;;;;;;17.63;4.05;;;13.20;99.90;;;;;;5074938;28;20055;-77
2023/10/30 10:53:12;;;;;;;13.95;2.55;;;13.20;99.90;;;;;;5075079;28;20048;-76
2023/10/30 10:55:49;;;;;;;13.38;2.60;;;13.10;99.90;;;;;;5094594;28;20048;-76
2023/10/30 10:58:29;;;;;;;10.48;2.47;;;13.10;99.90;;;;;;5096620;28;20396;-76
2023/10/30 11:00:56;;;;;;;10.52;3.00;;;13.10;99.90;;;;;;5096666;28;20131;-76
2023/10/30 11:03:22;;;;;;;12.38;2.58;;;13.10;99.90;;;;;;5096831;28;20111;-76
2023/10/30 11:05:50;;;;;;;15.27;2.50;;;13.10;99.90;;;;;;5078388;28;20527;-76
2023/10/30 11:08:41;;;;;;;11.65;2.55;;;13.20;99.90;;;;;;5078513;28;20052;-76
2023/10/30 11:11:38;;;;;;;8.30;2.15;;;13.30;99.90;;;;;;5096327;28;20495;-76
2023/10/30 11:14:22;;;;;;;14.80;2.58;;;13.60;99.90;;;;;;5077814;28;20190;-77
2023/10/30 11:16:59;;;;;;;10.32;2.55;;;13.60;99.90;;;;;;5096442;28;20071;-76
2023/10/30 11:19:26;;;;;;;16.05;3.00;;;13.80;99.90;;;;;;5078082;28;20083;-76
2023/10/30 11:21:52;;;;;;;9.90;2.00;;;13.70;99.90;;;;;;5078344;28;20048;-77
2023/10/30 11:24:38;;;;;;;13.48;2.20;;;13.80;99.90;;;;;;5096286;28;20102;-76
2023/10/30 11:27:26;;;;;;;12.10;2.13;;;13.80;99.90;;;;;;5096181;28;20487;-77
2023/10/30 11:29:56;;;;;;;14.88;2.53;;;13.80;99.90;;;;;;5096347;28;20040;-76
2023/10/30 11:32:24;;;;;;;11.95;2.33;;;13.80;99.90;;;;;;5077911;28;20044;-76
2023/10/30 11:34:50;;;;;;;15.50;3.58;;;13.80;99.90;;;;;;5077934;28;20407;-77
2023/10/30 11:37:21;;;;;;;9.95;2.22;;;13.90;99.90;;;;;;5078188;28;20048;-76
2023/10/30 11:39:49;;;;;;;12.30;2.08;;;13.90;99.90;;;;;;5077931;28;20039;-77
2023/10/30 11:42:24;;;;;;;13.43;2.85;;;14.00;99.90;;;;;;5077774;28;20052;-77
2023/10/30 11:44:51;;;;;;;12.57;2.10;;;14.00;99.90;;;;;;5095972;28;20050;-76
2023/10/30 11:47:23;;;;;;;16.98;2.38;;;14.10;99.90;;;;;;5077607;28;20134;-77
2023/10/30 11:49:49;;;;;;;10.45;2.30;;;14.10;99.90;;;;;;5095743;28;20047;-76
2023/10/30 11:52:15;;;;;;;16.70;2.58;;;14.20;99.90;;;;;;5076995;28;20055;-77
2023/10/30 11:54:44;;;;;;;11.40;2.40;;;14.10;99.90;;;;;;5077249;28;20055;-77
2023/10/30 11:57:10;;;;;;;12.32;2.67;;;14.10;99.90;;;;;;5077555;28;20083;-77
2023/10/30 11:59:36;;;;;;;11.75;2.47;;;14.20;99.90;;;;;;5095782;28;20063;-76
2023/10/30 12:02:04;;;;;;;9.68;2.03;;;14.10;99.90;;;;;;5077306;28;20040;-76
2023/10/30 12:04:32;;;;;;;11.32;2.10;;;14.10;99.90;;;;;;5077292;28;20526;-77
2023/10/30 12:07:00;;;;;;;12.10;2.55;;;14.20;99.90;;;;;;5093895;28;20063;-77
2023/10/30 12:09:27;;;;;;;8.52;2.35;;;14.30;99.90;;;;;;5077085;28;20048;-76
2023/10/30 12:11:53;;;;;;;12.15;2.30;;;14.30;99.90;;;;;;5095358;28;20044;-76
2023/10/30 12:14:19;;;;;;;19.58;2.65;;;14.30;99.90;;;;;;5095374;28;20040;-76
2023/10/30 12:16:47;;;;;;;10.57;1.95;;;14.30;99.90;;;;;;5076975;28;20048;-76
2023/10/30 12:19:13;;;;;;;10.23;1.92;;;14.30;99.90;;;;;;5077084;28;20044;-76
2023/10/30 12:21:39;;;;;;;12.43;2.38;;;14.20;99.90;;;;;;5077131;28;20036;-76
2023/10/30 12:24:04;;;;;;;11.88;2.53;;;14.20;99.90;;;;;;5076909;28;20107;-76
2023/10/30 12:26:33;;;;;;;13.00;3.67;;;14.20;99.90;;;;;;5076719;28;20130;-77
2023/10/30 12:29:00;;;;;;;15.40;1.83;;;14.20;99.90;;;;;;5076750;28;20044;-76
2023/10/30 12:31:28;;;;;;;12.32;2.00;;;14.30;99.90;;;;;;5076624;28;20079;-76
2023/10/30 12:34:10;;;;;;;15.23;2.53;;;14.20;99.90;;;;;;5076551;28;20047;-76
2023/10/30 12:36:37;;;;;;;12.25;2.13;;;14.20;99.90;;;;;;5076587;28;20043;-77
2023/10/30 12:39:13;;;;;;;12.27;2.20;;;14.20;99.90;;;;;;5076764;28;20048;-76
2023/10/30 12:41:39;;;;;;;10.95;2.60;;;14.20;99.90;;;;;;5094968;28;20055;-76
2023/10/30 12:44:04;;;;;;;19.23;2.25;;;14.10;99.90;;;;;;5076589;28;20495;-77